sensor_id;sensor_type;location;lat;lon;timestamp;P1;durP1;ratioP1;P2;durP2;ratioP2
65230;SDS011;51813;40.666;16.602;2023-01-24T00:01:00;4.45;;;2.97;;
65230;SDS011;51813;40.666;16.602;2023-01-24T00:03:26;4.82;;;2.90;;
65230;SDS011;51813;40.666;16.602;2023-01-24T00:05:52;4.75;;;2.80;;
65230;SDS011;51813;40.666;16.602;2023-01-24T00:08:18;4.25;;;3.05;;
65230;SDS011;51813;40.666;16.602;2023-01-24T00:10:47;4.72;;;3.00;;
65230;SDS011;51813;40.666;16.602;2023-01-24T00:13:14;4.20;;;2.83;;
65230;SDS011;51813;40.666;16.602;2023-01-24T00:15:40;4.43;;;2.90;;
65230;SDS011;51813;40.666;16.602;2023-01-24T00:18:06;5.35;;;3.13;;
65230;SDS011;51813;40.666;16.602;2023-01-24T00:20:32;4.22;;;3.00;;
65230;SDS011;51813;40.666;16.602;2023-01-24T00:22:58;5.38;;;3.17;;
65230;SDS011;51813;40.666;16.602;2023-01-24T00:25:24;4.53;;;2.78;;
65230;SDS011;51813;40.666;16.602;2023-01-24T00:27:49;5.40;;;2.90;;
65230;SDS011;51813;40.666;16.602;2023-01-24T00:30:15;4.45;;;2.80;;
65230;SDS011;51813;40.666;16.602;2023-01-24T00:32:41;4.00;;;2.90;;
65230;SDS011;51813;40.666;16.602;2023-01-24T00:35:07;4.05;;;2.78;;
65230;SDS011;51813;40.666;16.602;2023-01-24T00:37:33;4.03;;;2.95;;
65230;SDS011;51813;40.666;16.602;2023-01-24T00:39:58;4.13;;;3.00;;
65230;SDS011;51813;40.666;16.602;2023-01-24T00:42:24;5.05;;;3.13;;
65230;SDS011;51813;40.666;16.602;2023-01-24T00:44:50;4.20;;;3.00;;
65230;SDS011;51813;40.666;16.602;2023-01-24T00:47:16;4.53;;;2.72;;
65230;SDS011;51813;40.666;16.602;2023-01-24T00:49:42;4.20;;;3.00;;
65230;SDS011;51813;40.666;16.602;2023-01-24T00:52:07;5.55;;;3.10;;
65230;SDS011;51813;40.666;16.602;2023-01-24T00:54:33;4.82;;;3.38;;
65230;SDS011;51813;40.666;16.602;2023-01-24T00:56:58;4.47;;;2.85;;
65230;SDS011;51813;40.666;16.602;2023-01-24T00:59:24;5.05;;;3.40;;
65230;SDS011;51813;40.666;16.602;2023-01-24T01:01:50;4.88;;;3.17;;
65230;SDS011;51813;40.666;16.602;2023-01-24T01:04:15;4.65;;;3.33;;
65230;SDS011;51813;40.666;16.602;2023-01-24T01:06:43;5.47;;;3.35;;
65230;SDS011;51813;40.666;16.602;2023-01-24T01:09:09;4.43;;;3.33;;
65230;SDS011;51813;40.666;16.602;2023-01-24T01:11:36;4.90;;;3.53;;
65230;SDS011;51813;40.666;16.602;2023-01-24T01:16:32;5.32;;;3.38;;
65230;SDS011;51813;40.666;16.602;2023-01-24T01:19:02;5.13;;;3.40;;
65230;SDS011;51813;40.666;16.602;2023-01-24T01:21:29;4.97;;;3.40;;
65230;SDS011;51813;40.666;16.602;2023-01-24T01:23:55;5.35;;;3.70;;
65230;SDS011;51813;40.666;16.602;2023-01-24T01:26:21;5.68;;;3.55;;
65230;SDS011;51813;40.666;16.602;2023-01-24T01:28:47;5.85;;;3.50;;
65230;SDS011;51813;40.666;16.602;2023-01-24T01:31:13;5.00;;;3.38;;
65230;SDS011;51813;40.666;16.602;2023-01-24T01:33:39;5.25;;;3.40;;
65230;SDS011;51813;40.666;16.602;2023-01-24T01:36:05;5.50;;;3.50;;
65230;SDS011;51813;40.666;16.602;2023-01-24T01:38:31;4.70;;;3.33;;
65230;SDS011;51813;40.666;16.602;2023-01-24T01:40:57;5.45;;;3.40;;
65230;SDS011;51813;40.666;16.602;2023-01-24T01:43:25;4.88;;;3.63;;
65230;SDS011;51813;40.666;16.602;2023-01-24T01:48:34;5.20;;;3.17;;
65230;SDS011;51813;40.666;16.602;2023-01-24T01:53:55;4.15;;;3.08;;
65230;SDS011;51813;40.666;16.602;2023-01-24T01:56:34;4.22;;;2.85;;
65230;SDS011;51813;40.666;16.602;2023-01-24T01:59:03;4.20;;;2.97;;
65230;SDS011;51813;40.666;16.602;2023-01-24T02:01:34;4.47;;;3.28;;
65230;SDS011;51813;40.666;16.602;2023-01-24T02:04:02;4.70;;;2.90;;
65230;SDS011;51813;40.666;16.602;2023-01-24T02:06:56;4.80;;;2.97;;
65230;SDS011;51813;40.666;16.602;2023-01-24T02:09:27;4.32;;;2.97;;
65230;SDS011;51813;40.666;16.602;2023-01-24T02:11:57;5.65;;;3.13;;
65230;SDS011;51813;40.666;16.602;2023-01-24T02:14:26;5.10;;;3.17;;
65230;SDS011;51813;40.666;16.602;2023-01-24T02:17:11;4.90;;;2.78;;
65230;SDS011;51813;40.666;16.602;2023-01-24T02:24:59;4.70;;;3.45;;
65230;SDS011;51813;40.666;16.602;2023-01-24T02:27:33;4.63;;;3.10;;
65230;SDS011;51813;40.666;16.602;2023-01-24T02:29:59;4.22;;;2.88;;
65230;SDS011;51813;40.666;16.602;2023-01-24T02:32:25;4.88;;;3.38;;
65230;SDS011;51813;40.666;16.602;2023-01-24T02:34:51;4.57;;;2.75;;
65230;SDS011;51813;40.666;16.602;2023-01-24T02:37:17;4.85;;;3.00;;
65230;SDS011;51813;40.666;16.602;2023-01-24T02:42:19;4.38;;;2.83;;
65230;SDS011;51813;40.666;16.602;2023-01-24T02:47:27;4.88;;;3.10;;
65230;SDS011;51813;40.666;16.602;2023-01-24T02:49:58;4.55;;;3.20;;
65230;SDS011;51813;40.666;16.602;2023-01-24T02:52:25;3.97;;;2.75;;
65230;SDS011;51813;40.666;16.602;2023-01-24T02:55:09;4.00;;;2.70;;
65230;SDS011;51813;40.666;16.602;2023-01-24T02:57:34;4.10;;;2.60;;
65230;SDS011;51813;40.666;16.602;2023-01-24T03:00:19;4.35;;;2.60;;
65230;SDS011;51813;40.666;16.602;2023-01-24T03:02:45;3.95;;;2.80;;
65230;SDS011;51813;40.666;16.602;2023-01-24T03:05:10;4.22;;;2.60;;
65230;SDS011;51813;40.666;16.602;2023-01-24T03:07:36;4.47;;;2.67;;
65230;SDS011;51813;40.666;16.602;2023-01-24T03:10:10;3.38;;;2.17;;
65230;SDS011;51813;40.666;16.602;2023-01-24T03:12:37;4.28;;;2.75;;
65230;SDS011;51813;40.666;16.602;2023-01-24T03:15:21;4.05;;;2.40;;
65230;SDS011;51813;40.666;16.602;2023-01-24T03:18:05;5.30;;;2.78;;
65230;SDS011;51813;40.666;16.602;2023-01-24T03:20:49;4.43;;;2.53;;
65230;SDS011;51813;40.666;16.602;2023-01-24T03:23:33;4.13;;;2.60;;
65230;SDS011;51813;40.666;16.602;2023-01-24T03:26:17;4.82;;;2.38;;
65230;SDS011;51813;40.666;16.602;2023-01-24T03:29:02;3.90;;;2.60;;
65230;SDS011;51813;40.666;16.602;2023-01-24T03:31:46;3.58;;;2.50;;
65230;SDS011;51813;40.666;16.602;2023-01-24T03:34:30;3.58;;;2.40;;
65230;SDS011;51813;40.666;16.602;2023-01-24T03:36:57;3.58;;;2.35;;
65230;SDS011;51813;40.666;16.602;2023-01-24T03:39:26;3.60;;;2.20;;
65230;SDS011;51813;40.666;16.602;2023-01-24T03:42:10;4.13;;;2.40;;
65230;SDS011;51813;40.666;16.602;2023-01-24T03:44:36;3.42;;;2.30;;
65230;SDS011;51813;40.666;16.602;2023-01-24T03:47:02;3.63;;;2.30;;
65230;SDS011;51813;40.666;16.602;2023-01-24T03:49:27;3.28;;;2.00;;
65230;SDS011;51813;40.666;16.602;2023-01-24T03:52:12;3.67;;;2.10;;
65230;SDS011;51813;40.666;16.602;2023-01-24T03:54:51;5.13;;;2.20;;
65230;SDS011;51813;40.666;16.602;2023-01-24T03:57:17;3.70;;;2.28;;
65230;SDS011;51813;40.666;16.602;2023-01-24T03:59:43;3.80;;;2.30;;
65230;SDS011;51813;40.666;16.602;2023-01-24T04:02:08;3.03;;;2.00;;
65230;SDS011;51813;40.666;16.602;2023-01-24T04:04:34;2.92;;;2.00;;
65230;SDS011;51813;40.666;16.602;2023-01-24T04:07:19;3.78;;;2.25;;
65230;SDS011;51813;40.666;16.602;2023-01-24T04:09:44;3.40;;;2.45;;
65230;SDS011;51813;40.666;16.602;2023-01-24T04:12:10;3.83;;;2.28;;
65230;SDS011;51813;40.666;16.602;2023-01-24T04:14:36;4.32;;;2.78;;
65230;SDS011;51813;40.666;16.602;2023-01-24T04:17:01;4.38;;;2.15;;
65230;SDS011;51813;40.666;16.602;2023-01-24T04:19:28;3.30;;;2.22;;
65230;SDS011;51813;40.666;16.602;2023-01-24T04:21:53;3.63;;;2.22;;
65230;SDS011;51813;40.666;16.602;2023-01-24T04:24:22;3.10;;;2.08;;
65230;SDS011;51813;40.666;16.602;2023-01-24T04:26:48;2.70;;;1.90;;
65230;SDS011;51813;40.666;16.602;2023-01-24T04:29:13;3.20;;;2.00;;
65230;SDS011;51813;40.666;16.602;2023-01-24T04:31:39;2.78;;;1.70;;
65230;SDS011;51813;40.666;16.602;2023-01-24T04:34:05;2.80;;;2.00;;
65230;SDS011;51813;40.666;16.602;2023-01-24T04:36:30;2.97;;;1.90;;
65230;SDS011;51813;40.666;16.602;2023-01-24T04:38:56;3.00;;;1.83;;
65230;SDS011;51813;40.666;16.602;2023-01-24T04:41:22;3.35;;;2.08;;
65230;SDS011;51813;40.666;16.602;2023-01-24T04:43:47;3.90;;;2.08;;
65230;SDS011;51813;40.666;16.602;2023-01-24T04:46:13;2.97;;;1.88;;
65230;SDS011;51813;40.666;16.602;2023-01-24T04:48:39;2.60;;;2.00;;
65230;SDS011;51813;40.666;16.602;2023-01-24T04:51:04;3.20;;;2.00;;
65230;SDS011;51813;40.666;16.602;2023-01-24T04:53:30;2.83;;;1.80;;
65230;SDS011;51813;40.666;16.602;2023-01-24T04:56:02;3.33;;;2.00;;
65230;SDS011;51813;40.666;16.602;2023-01-24T04:58:28;3.20;;;1.88;;
65230;SDS011;51813;40.666;16.602;2023-01-24T05:00:54;3.92;;;2.00;;
65230;SDS011;51813;40.666;16.602;2023-01-24T05:03:19;3.30;;;2.00;;
65230;SDS011;51813;40.666;16.602;2023-01-24T05:05:48;3.22;;;2.08;;
65230;SDS011;51813;40.666;16.602;2023-01-24T05:08:15;3.40;;;1.92;;
65230;SDS011;51813;40.666;16.602;2023-01-24T05:10:40;3.92;;;2.28;;
65230;SDS011;51813;40.666;16.602;2023-01-24T05:13:06;3.60;;;1.77;;
65230;SDS011;51813;40.666;16.602;2023-01-24T05:15:32;4.07;;;2.03;;
65230;SDS011;51813;40.666;16.602;2023-01-24T05:17:57;3.00;;;2.17;;
65230;SDS011;51813;40.666;16.602;2023-01-24T05:20:23;3.03;;;2.03;;
65230;SDS011;51813;40.666;16.602;2023-01-24T05:22:49;3.08;;;2.15;;
65230;SDS011;51813;40.666;16.602;2023-01-24T05:25:15;4.57;;;2.30;;
65230;SDS011;51813;40.666;16.602;2023-01-24T05:27:41;2.83;;;1.90;;
65230;SDS011;51813;40.666;16.602;2023-01-24T05:30:07;2.70;;;1.90;;
65230;SDS011;51813;40.666;16.602;2023-01-24T05:32:33;3.30;;;2.03;;
65230;SDS011;51813;40.666;16.602;2023-01-24T05:34:59;3.03;;;2.08;;
65230;SDS011;51813;40.666;16.602;2023-01-24T05:37:24;3.97;;;2.30;;
65230;SDS011;51813;40.666;16.602;2023-01-24T05:39:50;4.53;;;2.17;;
65230;SDS011;51813;40.666;16.602;2023-01-24T05:42:16;4.80;;;2.30;;
65230;SDS011;51813;40.666;16.602;2023-01-24T05:44:41;3.58;;;2.20;;
65230;SDS011;51813;40.666;16.602;2023-01-24T05:47:07;3.38;;;1.90;;
65230;SDS011;51813;40.666;16.602;2023-01-24T05:49:33;3.10;;;2.10;;
65230;SDS011;51813;40.666;16.602;2023-01-24T05:51:58;3.22;;;1.92;;
65230;SDS011;51813;40.666;16.602;2023-01-24T05:54:24;3.33;;;2.00;;
65230;SDS011;51813;40.666;16.602;2023-01-24T05:56:50;3.10;;;1.92;;
65230;SDS011;51813;40.666;16.602;2023-01-24T05:59:15;3.40;;;2.13;;
65230;SDS011;51813;40.666;16.602;2023-01-24T06:01:41;3.10;;;2.05;;
65230;SDS011;51813;40.666;16.602;2023-01-24T06:04:07;4.00;;;2.50;;
65230;SDS011;51813;40.666;16.602;2023-01-24T06:06:33;3.72;;;2.00;;
65230;SDS011;51813;40.666;16.602;2023-01-24T06:08:59;3.75;;;1.80;;
65230;SDS011;51813;40.666;16.602;2023-01-24T06:11:25;3.97;;;2.42;;
65230;SDS011;51813;40.666;16.602;2023-01-24T06:13:57;2.95;;;1.98;;
65230;SDS011;51813;40.666;16.602;2023-01-24T06:16:23;4.05;;;2.22;;
65230;SDS011;51813;40.666;16.602;2023-01-24T06:18:50;4.13;;;2.28;;
65230;SDS011;51813;40.666;16.602;2023-01-24T06:24:21;2.75;;;2.05;;
65230;SDS011;51813;40.666;16.602;2023-01-24T06:26:48;3.17;;;2.30;;
65230;SDS011;51813;40.666;16.602;2023-01-24T06:29:15;4.30;;;2.47;;
65230;SDS011;51813;40.666;16.602;2023-01-24T06:34:36;4.15;;;2.85;;
65230;SDS011;51813;40.666;16.602;2023-01-24T06:40:14;4.65;;;2.92;;
65230;SDS011;51813;40.666;16.602;2023-01-24T06:42:42;3.63;;;2.72;;
65230;SDS011;51813;40.666;16.602;2023-01-24T06:45:08;4.85;;;2.70;;
65230;SDS011;51813;40.666;16.602;2023-01-24T06:47:35;4.50;;;2.80;;
65230;SDS011;51813;40.666;16.602;2023-01-24T06:50:01;4.25;;;2.80;;
65230;SDS011;51813;40.666;16.602;2023-01-24T06:52:27;4.38;;;2.92;;
65230;SDS011;51813;40.666;16.602;2023-01-24T06:54:52;5.63;;;3.25;;
65230;SDS011;51813;40.666;16.602;2023-01-24T06:57:18;4.10;;;3.08;;
65230;SDS011;51813;40.666;16.602;2023-01-24T06:59:44;5.13;;;3.08;;
65230;SDS011;51813;40.666;16.602;2023-01-24T07:02:09;5.53;;;3.45;;
65230;SDS011;51813;40.666;16.602;2023-01-24T07:04:35;5.72;;;3.60;;
65230;SDS011;51813;40.666;16.602;2023-01-24T07:07:01;5.47;;;3.83;;
65230;SDS011;51813;40.666;16.602;2023-01-24T07:09:28;5.60;;;4.05;;
65230;SDS011;51813;40.666;16.602;2023-01-24T07:11:54;4.80;;;3.85;;
65230;SDS011;51813;40.666;16.602;2023-01-24T07:14:22;6.43;;;4.20;;
65230;SDS011;51813;40.666;16.602;2023-01-24T07:16:48;5.75;;;3.95;;
65230;SDS011;51813;40.666;16.602;2023-01-24T07:19:19;5.85;;;4.10;;
65230;SDS011;51813;40.666;16.602;2023-01-24T07:21:52;6.40;;;4.07;;
65230;SDS011;51813;40.666;16.602;2023-01-24T07:24:26;5.30;;;4.07;;
65230;SDS011;51813;40.666;16.602;2023-01-24T07:26:54;6.68;;;4.60;;
65230;SDS011;51813;40.666;16.602;2023-01-24T07:29:20;6.57;;;4.53;;
65230;SDS011;51813;40.666;16.602;2023-01-24T07:31:47;6.13;;;5.25;;
65230;SDS011;51813;40.666;16.602;2023-01-24T07:34:14;6.07;;;4.93;;
65230;SDS011;51813;40.666;16.602;2023-01-24T07:36:41;7.78;;;5.75;;
65230;SDS011;51813;40.666;16.602;2023-01-24T07:39:07;7.55;;;5.07;;
65230;SDS011;51813;40.666;16.602;2023-01-24T07:41:34;5.50;;;4.75;;
65230;SDS011;51813;40.666;16.602;2023-01-24T07:44:00;6.65;;;5.15;;
65230;SDS011;51813;40.666;16.602;2023-01-24T07:46:30;7.53;;;4.90;;
65230;SDS011;51813;40.666;16.602;2023-01-24T07:48:56;7.10;;;4.75;;
65230;SDS011;51813;40.666;16.602;2023-01-24T07:51:22;6.57;;;5.20;;
65230;SDS011;51813;40.666;16.602;2023-01-24T07:53:47;6.30;;;4.53;;
65230;SDS011;51813;40.666;16.602;2023-01-24T07:56:13;6.15;;;4.80;;
65230;SDS011;51813;40.666;16.602;2023-01-24T07:58:40;6.40;;;4.50;;
65230;SDS011;51813;40.666;16.602;2023-01-24T08:01:06;5.90;;;4.45;;
65230;SDS011;51813;40.666;16.602;2023-01-24T08:03:32;6.65;;;4.60;;
65230;SDS011;51813;40.666;16.602;2023-01-24T08:05:58;6.20;;;4.18;;
65230;SDS011;51813;40.666;16.602;2023-01-24T08:08:24;5.47;;;4.28;;
65230;SDS011;51813;40.666;16.602;2023-01-24T08:10:50;5.57;;;3.95;;
65230;SDS011;51813;40.666;16.602;2023-01-24T08:13:15;4.47;;;3.70;;
65230;SDS011;51813;40.666;16.602;2023-01-24T08:15:41;5.00;;;3.72;;
65230;SDS011;51813;40.666;16.602;2023-01-24T08:18:07;11.98;;;3.83;;
65230;SDS011;51813;40.666;16.602;2023-01-24T08:20:33;17.48;;;5.07;;
65230;SDS011;51813;40.666;16.602;2023-01-24T08:22:58;14.55;;;4.30;;
65230;SDS011;51813;40.666;16.602;2023-01-24T08:25:25;11.90;;;4.05;;
65230;SDS011;51813;40.666;16.602;2023-01-24T08:27:51;7.80;;;3.25;;
65230;SDS011;51813;40.666;16.602;2023-01-24T08:30:18;12.90;;;3.47;;
65230;SDS011;51813;40.666;16.602;2023-01-24T08:32:44;6.05;;;3.08;;
65230;SDS011;51813;40.666;16.602;2023-01-24T08:35:10;6.55;;;2.95;;
65230;SDS011;51813;40.666;16.602;2023-01-24T08:37:36;9.55;;;3.45;;
65230;SDS011;51813;40.666;16.602;2023-01-24T08:40:01;7.78;;;2.60;;
65230;SDS011;51813;40.666;16.602;2023-01-24T08:42:28;6.10;;;2.92;;
65230;SDS011;51813;40.666;16.602;2023-01-24T08:44:54;8.55;;;3.03;;
65230;SDS011;51813;40.666;16.602;2023-01-24T08:47:19;11.00;;;3.35;;
65230;SDS011;51813;40.666;16.602;2023-01-24T08:49:45;5.70;;;2.63;;
65230;SDS011;51813;40.666;16.602;2023-01-24T08:52:11;5.97;;;2.60;;
65230;SDS011;51813;40.666;16.602;2023-01-24T08:54:36;4.05;;;2.35;;
65230;SDS011;51813;40.666;16.602;2023-01-24T08:57:04;5.57;;;2.40;;
65230;SDS011;51813;40.666;16.602;2023-01-24T08:59:31;7.28;;;2.97;;
65230;SDS011;51813;40.666;16.602;2023-01-24T09:01:57;8.63;;;2.97;;
65230;SDS011;51813;40.666;16.602;2023-01-24T09:04:23;5.43;;;2.53;;
65230;SDS011;51813;40.666;16.602;2023-01-24T09:06:51;8.75;;;2.72;;
65230;SDS011;51813;40.666;16.602;2023-01-24T09:09:17;9.02;;;3.00;;
65230;SDS011;51813;40.666;16.602;2023-01-24T09:11:43;18.75;;;3.53;;
65230;SDS011;51813;40.666;16.602;2023-01-24T09:14:09;7.20;;;2.95;;
65230;SDS011;51813;40.666;16.602;2023-01-24T09:16:34;11.90;;;3.28;;
65230;SDS011;51813;40.666;16.602;2023-01-24T09:19:00;10.82;;;2.58;;
65230;SDS011;51813;40.666;16.602;2023-01-24T09:21:26;6.97;;;2.63;;
65230;SDS011;51813;40.666;16.602;2023-01-24T09:23:54;7.40;;;3.33;;
65230;SDS011;51813;40.666;16.602;2023-01-24T09:26:20;6.72;;;2.63;;
65230;SDS011;51813;40.666;16.602;2023-01-24T09:28:46;6.50;;;2.42;;
65230;SDS011;51813;40.666;16.602;2023-01-24T09:31:12;15.85;;;2.72;;
65230;SDS011;51813;40.666;16.602;2023-01-24T09:33:38;5.28;;;2.45;;
65230;SDS011;51813;40.666;16.602;2023-01-24T09:36:04;6.97;;;3.03;;
65230;SDS011;51813;40.666;16.602;2023-01-24T09:38:31;7.28;;;2.83;;
65230;SDS011;51813;40.666;16.602;2023-01-24T09:41:06;5.55;;;2.55;;
65230;SDS011;51813;40.666;16.602;2023-01-24T09:43:44;4.50;;;2.85;;
65230;SDS011;51813;40.666;16.602;2023-01-24T09:48:46;5.22;;;2.63;;
65230;SDS011;51813;40.666;16.602;2023-01-24T09:51:15;3.80;;;2.88;;
65230;SDS011;51813;40.666;16.602;2023-01-24T09:53:47;5.05;;;3.00;;
65230;SDS011;51813;40.666;16.602;2023-01-24T09:56:22;5.10;;;2.75;;
65230;SDS011;51813;40.666;16.602;2023-01-24T10:01:40;3.90;;;2.50;;
65230;SDS011;51813;40.666;16.602;2023-01-24T10:04:16;5.90;;;2.72;;
65230;SDS011;51813;40.666;16.602;2023-01-24T10:07:10;5.43;;;3.20;;
65230;SDS011;51813;40.666;16.602;2023-01-24T10:23:00;8.48;;;4.60;;
65230;SDS011;51813;40.666;16.602;2023-01-24T10:25:37;9.70;;;5.05;;
65230;SDS011;51813;40.666;16.602;2023-01-24T10:28:22;10.90;;;5.47;;
65230;SDS011;51813;40.666;16.602;2023-01-24T10:33:27;8.77;;;5.28;;
65230;SDS011;51813;40.666;16.602;2023-01-24T10:36:00;8.18;;;4.80;;
65230;SDS011;51813;40.666;16.602;2023-01-24T10:38:27;7.05;;;4.35;;
65230;SDS011;51813;40.666;16.602;2023-01-24T10:43:24;6.13;;;3.20;;
65230;SDS011;51813;40.666;16.602;2023-01-24T10:48:46;5.57;;;3.33;;
65230;SDS011;51813;40.666;16.602;2023-01-24T10:51:20;4.25;;;2.65;;
65230;SDS011;51813;40.666;16.602;2023-01-24T10:53:48;4.20;;;2.90;;
65230;SDS011;51813;40.666;16.602;2023-01-24T10:56:15;5.68;;;2.75;;
65230;SDS011;51813;40.666;16.602;2023-01-24T10:58:58;4.88;;;2.90;;
65230;SDS011;51813;40.666;16.602;2023-01-24T11:01:45;4.65;;;2.78;;
65230;SDS011;51813;40.666;16.602;2023-01-24T11:04:27;4.68;;;2.65;;
65230;SDS011;51813;40.666;16.602;2023-01-24T11:06:54;4.03;;;2.60;;
65230;SDS011;51813;40.666;16.602;2023-01-24T11:09:22;4.40;;;2.90;;
65230;SDS011;51813;40.666;16.602;2023-01-24T11:11:55;4.10;;;2.60;;
65230;SDS011;51813;40.666;16.602;2023-01-24T11:16:53;4.25;;;2.45;;
65230;SDS011;51813;40.666;16.602;2023-01-24T11:19:33;3.70;;;2.47;;
65230;SDS011;51813;40.666;16.602;2023-01-24T11:24:49;3.92;;;2.03;;
65230;SDS011;51813;40.666;16.602;2023-01-24T11:27:20;3.42;;;2.10;;
65230;SDS011;51813;40.666;16.602;2023-01-24T11:35:23;3.20;;;2.10;;
65230;SDS011;51813;40.666;16.602;2023-01-24T12:05:55;3.60;;;1.70;;
65230;SDS011;51813;40.666;16.602;2023-01-24T12:22:05;2.70;;;1.60;;
65230;SDS011;51813;40.666;16.602;2023-01-24T12:24:36;2.88;;;1.80;;
65230;SDS011;51813;40.666;16.602;2023-01-24T12:27:06;3.58;;;2.08;;
65230;SDS011;51813;40.666;16.602;2023-01-24T12:29:41;2.72;;;1.65;;
65230;SDS011;51813;40.666;16.602;2023-01-24T12:32:14;2.70;;;1.80;;
65230;SDS011;51813;40.666;16.602;2023-01-24T12:37:40;3.13;;;1.80;;
65230;SDS011;51813;40.666;16.602;2023-01-24T12:51:01;4.22;;;1.70;;
65230;SDS011;51813;40.666;16.602;2023-01-24T12:53:38;2.65;;;1.58;;
65230;SDS011;51813;40.666;16.602;2023-01-24T12:56:20;2.85;;;1.65;;
65230;SDS011;51813;40.666;16.602;2023-01-24T12:58:52;3.00;;;1.70;;
65230;SDS011;51813;40.666;16.602;2023-01-24T13:04:12;2.75;;;1.60;;
65230;SDS011;51813;40.666;16.602;2023-01-24T13:12:21;2.95;;;1.65;;
65230;SDS011;51813;40.666;16.602;2023-01-24T13:14:51;3.15;;;1.60;;
65230;SDS011;51813;40.666;16.602;2023-01-24T13:34:04;2.55;;;1.60;;
65230;SDS011;51813;40.666;16.602;2023-01-24T13:36:38;2.75;;;1.70;;
65230;SDS011;51813;40.666;16.602;2023-01-24T13:39:04;3.10;;;1.60;;
65230;SDS011;51813;40.666;16.602;2023-01-24T13:41:36;2.63;;;1.40;;
65230;SDS011;51813;40.666;16.602;2023-01-24T13:51:53;2.13;;;1.40;;
65230;SDS011;51813;40.666;16.602;2023-01-24T13:57:10;2.38;;;1.40;;
65230;SDS011;51813;40.666;16.602;2023-01-24T13:59:57;2.83;;;1.50;;
65230;SDS011;51813;40.666;16.602;2023-01-24T14:08:00;2.35;;;1.35;;
65230;SDS011;51813;40.666;16.602;2023-01-24T14:10:45;2.78;;;1.50;;
65230;SDS011;51813;40.666;16.602;2023-01-24T14:13:57;2.75;;;1.50;;
65230;SDS011;51813;40.666;16.602;2023-01-24T14:16:09;2.00;;;1.30;;
65230;SDS011;51813;40.666;16.602;2023-01-24T14:21:36;2.15;;;1.30;;
65230;SDS011;51813;40.666;16.602;2023-01-24T14:24:24;2.00;;;1.15;;
65230;SDS011;51813;40.666;16.602;2023-01-24T14:26:55;2.70;;;1.50;;
65230;SDS011;51813;40.666;16.602;2023-01-24T14:29:25;2.38;;;1.30;;
65230;SDS011;51813;40.666;16.602;2023-01-24T14:32:06;3.10;;;1.20;;
65230;SDS011;51813;40.666;16.602;2023-01-24T14:34:45;3.67;;;1.23;;
65230;SDS011;51813;40.666;16.602;2023-01-24T14:37:19;2.38;;;1.25;;
65230;SDS011;51813;40.666;16.602;2023-01-24T14:39:44;2.78;;;1.48;;
65230;SDS011;51813;40.666;16.602;2023-01-24T14:42:14;3.25;;;1.40;;
65230;SDS011;51813;40.666;16.602;2023-01-24T14:44:54;3.05;;;1.52;;
65230;SDS011;51813;40.666;16.602;2023-01-24T14:47:27;2.55;;;1.52;;
65230;SDS011;51813;40.666;16.602;2023-01-24T14:49:54;2.35;;;1.35;;
65230;SDS011;51813;40.666;16.602;2023-01-24T14:52:25;2.58;;;1.65;;
65230;SDS011;51813;40.666;16.602;2023-01-24T14:54:54;3.00;;;1.45;;
65230;SDS011;51813;40.666;16.602;2023-01-24T14:57:26;3.00;;;1.40;;
65230;SDS011;51813;40.666;16.602;2023-01-24T15:00:17;2.20;;;1.25;;
65230;SDS011;51813;40.666;16.602;2023-01-24T15:02:53;2.33;;;1.35;;
65230;SDS011;51813;40.666;16.602;2023-01-24T15:07:52;3.00;;;1.60;;
65230;SDS011;51813;40.666;16.602;2023-01-24T15:10:28;3.78;;;1.65;;
65230;SDS011;51813;40.666;16.602;2023-01-24T15:13:07;3.17;;;2.20;;
65230;SDS011;51813;40.666;16.602;2023-01-24T15:15:42;6.68;;;2.03;;
65230;SDS011;51813;40.666;16.602;2023-01-24T15:18:18;3.30;;;1.80;;
65230;SDS011;51813;40.666;16.602;2023-01-24T15:21:26;4.90;;;2.50;;
65230;SDS011;51813;40.666;16.602;2023-01-24T15:23:56;3.65;;;2.38;;
65230;SDS011;51813;40.666;16.602;2023-01-24T15:26:30;5.60;;;2.70;;
65230;SDS011;51813;40.666;16.602;2023-01-24T15:35:21;3.80;;;2.35;;
65230;SDS011;51813;40.666;16.602;2023-01-24T15:46:23;4.72;;;3.05;;
65230;SDS011;51813;40.666;16.602;2023-01-24T15:51:57;4.70;;;3.10;;
65230;SDS011;51813;40.666;16.602;2023-01-24T15:54:23;4.80;;;3.15;;
65230;SDS011;51813;40.666;16.602;2023-01-24T15:56:51;5.13;;;3.30;;
65230;SDS011;51813;40.666;16.602;2023-01-24T15:59:17;5.22;;;3.53;;
65230;SDS011;51813;40.666;16.602;2023-01-24T16:01:44;5.65;;;3.55;;
65230;SDS011;51813;40.666;16.602;2023-01-24T16:04:14;4.20;;;3.15;;
65230;SDS011;51813;40.666;16.602;2023-01-24T16:06:41;6.18;;;3.50;;
65230;SDS011;51813;40.666;16.602;2023-01-24T16:09:07;6.20;;;3.28;;
65230;SDS011;51813;40.666;16.602;2023-01-24T16:11:37;5.93;;;3.35;;
65230;SDS011;51813;40.666;16.602;2023-01-24T16:14:11;5.10;;;3.33;;
65230;SDS011;51813;40.666;16.602;2023-01-24T16:16:43;5.25;;;3.30;;
65230;SDS011;51813;40.666;16.602;2023-01-24T16:19:13;5.93;;;3.60;;
65230;SDS011;51813;40.666;16.602;2023-01-24T16:21:41;5.50;;;3.50;;
65230;SDS011;51813;40.666;16.602;2023-01-24T16:24:07;5.80;;;3.72;;
65230;SDS011;51813;40.666;16.602;2023-01-24T16:26:33;5.90;;;3.50;;
65230;SDS011;51813;40.666;16.602;2023-01-24T16:28:59;5.38;;;3.67;;
65230;SDS011;51813;40.666;16.602;2023-01-24T16:31:24;6.43;;;3.67;;
65230;SDS011;51813;40.666;16.602;2023-01-24T16:33:50;5.40;;;3.70;;
65230;SDS011;51813;40.666;16.602;2023-01-24T16:36:16;5.85;;;3.63;;
65230;SDS011;51813;40.666;16.602;2023-01-24T16:38:41;4.75;;;3.65;;
65230;SDS011;51813;40.666;16.602;2023-01-24T16:41:08;6.82;;;3.65;;
65230;SDS011;51813;40.666;16.602;2023-01-24T16:43:35;5.20;;;3.67;;
65230;SDS011;51813;40.666;16.602;2023-01-24T16:46:01;5.05;;;3.45;;
65230;SDS011;51813;40.666;16.602;2023-01-24T16:48:28;6.53;;;3.67;;
65230;SDS011;51813;40.666;16.602;2023-01-24T16:50:56;4.88;;;3.60;;
65230;SDS011;51813;40.666;16.602;2023-01-24T16:53:21;5.43;;;3.80;;
65230;SDS011;51813;40.666;16.602;2023-01-24T16:55:56;5.55;;;3.75;;
65230;SDS011;51813;40.666;16.602;2023-01-24T16:58:22;5.30;;;3.72;;
65230;SDS011;51813;40.666;16.602;2023-01-24T17:00:48;6.32;;;3.80;;
65230;SDS011;51813;40.666;16.602;2023-01-24T17:03:14;5.22;;;3.85;;
65230;SDS011;51813;40.666;16.602;2023-01-24T17:05:39;6.70;;;4.70;;
65230;SDS011;51813;40.666;16.602;2023-01-24T17:08:05;7.43;;;4.95;;
65230;SDS011;51813;40.666;16.602;2023-01-24T17:10:34;7.22;;;4.50;;
65230;SDS011;51813;40.666;16.602;2023-01-24T17:12:59;6.43;;;4.50;;
65230;SDS011;51813;40.666;16.602;2023-01-24T17:15:25;7.18;;;5.03;;
65230;SDS011;51813;40.666;16.602;2023-01-24T17:17:51;6.30;;;4.50;;
65230;SDS011;51813;40.666;16.602;2023-01-24T17:20:16;6.25;;;4.30;;
65230;SDS011;51813;40.666;16.602;2023-01-24T17:22:42;6.18;;;4.18;;
65230;SDS011;51813;40.666;16.602;2023-01-24T17:25:08;6.85;;;4.38;;
65230;SDS011;51813;40.666;16.602;2023-01-24T17:27:34;6.40;;;4.10;;
65230;SDS011;51813;40.666;16.602;2023-01-24T17:30:00;6.30;;;4.28;;
65230;SDS011;51813;40.666;16.602;2023-01-24T17:32:25;7.03;;;3.88;;
65230;SDS011;51813;40.666;16.602;2023-01-24T17:34:52;6.43;;;4.25;;
65230;SDS011;51813;40.666;16.602;2023-01-24T17:37:18;6.40;;;3.90;;
65230;SDS011;51813;40.666;16.602;2023-01-24T17:39:44;4.97;;;3.63;;
65230;SDS011;51813;40.666;16.602;2023-01-24T17:42:10;6.07;;;4.30;;
65230;SDS011;51813;40.666;16.602;2023-01-24T17:44:35;6.03;;;3.72;;
65230;SDS011;51813;40.666;16.602;2023-01-24T17:47:01;5.25;;;3.67;;
65230;SDS011;51813;40.666;16.602;2023-01-24T17:49:27;4.38;;;3.33;;